Time;durP1;ratioP1;P1;durP2;ratioP2;P2;SDS_P1;SDS_P2;PMS_P1;PMS_P2;Temp;Humidity;BMP_temperature;BMP_pressure;BME280_temperature;BME280_humidity;BME280_pressure;Samples;Min_cycle;Max_cycle;Signal;HPM_P1;HPM_P2
2022/07/14 00:01:24;;;;;;;1.20;0.80;;;;;;;;;;5062584;27;86939;-48
2022/07/14 00:03:53;;;;;;;1.77;1.13;;;;;;;;;;5062120;27;90199;-47
2022/07/14 00:06:22;;;;;;;2.20;1.10;;;;;;;;;;5063033;27;88519;-47
2022/07/14 00:08:51;;;;;;;1.10;1.00;;;;;;;;;;5063111;27;87028;-47
2022/07/14 00:11:19;;;;;;;1.10;1.00;;;;;;;;;;5063601;27;87066;-47
2022/07/14 00:13:47;;;;;;;1.80;0.60;;;;;;;;;;5063065;27;88039;-47
2022/07/14 00:16:16;;;;;;;1.23;0.90;;;;;;;;;;5063019;27;88846;-47
2022/07/14 00:18:44;;;;;;;1.07;0.97;;;;;;;;;;5063162;27;86860;-47
2022/07/14 00:21:13;;;;;;;1.03;0.80;;;;;;;;;;5063686;27;86250;-47
2022/07/14 00:23:42;;;;;;;1.40;0.80;;;;;;;;;;5062764;27;88115;-47
2022/07/14 00:26:11;;;;;;;1.20;0.93;;;;;;;;;;5063061;27;88893;-47
2022/07/14 00:28:39;;;;;;;2.00;1.00;;;;;;;;;;5062902;27;87969;-48
2022/07/14 00:31:08;;;;;;;2.00;0.67;;;;;;;;;;5063056;27;86919;-47
2022/07/14 00:33:38;;;;;;;1.03;0.80;;;;;;;;;;5062409;27;88543;-47
2022/07/14 00:36:06;;;;;;;2.27;1.00;;;;;;;;;;5062405;27;88933;-47
2022/07/14 00:38:34;;;;;;;0.80;0.60;;;;;;;;;;5062234;27;87005;-47
2022/07/14 00:41:05;;;;;;;2.00;0.70;;;;;;;;;;5063068;27;87086;-47
2022/07/14 00:43:34;;;;;;;0.77;0.63;;;;;;;;;;5062803;27;88292;-47
2022/07/14 00:46:02;;;;;;;2.50;0.87;;;;;;;;;;5062847;27;87851;-47
2022/07/14 00:48:30;;;;;;;2.00;0.60;;;;;;;;;;5062564;27;87028;-47
2022/07/14 00:50:59;;;;;;;0.63;0.53;;;;;;;;;;5062866;27;87088;-47
2022/07/14 00:53:27;;;;;;;1.53;0.60;;;;;;;;;;5061919;27;89084;-47
2022/07/14 00:55:55;;;;;;;1.37;0.60;;;;;;;;;;5061262;27;88745;-47
2022/07/14 00:58:25;;;;;;;2.30;0.60;;;;;;;;;;5062263;27;87001;-47
2022/07/14 01:00:53;;;;;;;3.10;1.03;;;;;;;;;;5062439;27;86923;-47
2022/07/14 01:03:21;;;;;;;0.90;0.43;;;;;;;;;;5061736;27;87951;-46
2022/07/14 01:05:50;;;;;;;0.40;0.30;;;;;;;;;;5062324;27;88046;-47
2022/07/14 01:08:18;;;;;;;1.20;0.70;;;;;;;;;;5062184;27;87071;-47
2022/07/14 01:10:46;;;;;;;0.50;0.47;;;;;;;;;;5062833;27;86330;-47
2022/07/14 01:13:15;;;;;;;0.97;0.60;;;;;;;;;;5062418;27;87861;-47
2022/07/14 01:15:44;;;;;;;4.10;0.60;;;;;;;;;;5062518;27;87915;-47
2022/07/14 01:18:13;;;;;;;2.43;1.70;;;;;;;;;;5061207;27;88095;-47
2022/07/14 01:20:42;;;;;;;3.57;1.30;;;;;;;;;;5062244;27;86937;-47
2022/07/14 01:23:12;;;;;;;1.40;1.03;;;;;;;;;;5061369;27;88047;-47
2022/07/14 01:25:40;;;;;;;2.83;1.57;;;;;;;;;;5062164;27;87773;-47
2022/07/14 01:28:08;;;;;;;3.40;1.97;;;;;;;;;;5062161;27;87044;-47
2022/07/14 01:30:37;;;;;;;3.40;2.13;;;;;;;;;;5061013;27;87002;-47
2022/07/14 01:33:05;;;;;;;3.23;1.60;;;;;;;;;;5061798;27;88242;-47
2022/07/14 01:35:33;;;;;;;2.00;1.80;;;;;;;;;;5062185;27;87794;-47
2022/07/14 01:38:02;;;;;;;1.40;1.30;;;;;;;;;;5061371;27;87020;-48
2022/07/14 01:40:31;;;;;;;3.80;2.30;;;;;;;;;;5062097;27;86712;-47
2022/07/14 01:43:00;;;;;;;4.17;2.50;;;;;;;;;;5061392;27;88770;-47
2022/07/14 01:45:28;;;;;;;5.07;2.43;;;;;;;;;;5061595;27;88777;-47
2022/07/14 01:47:56;;;;;;;4.37;2.20;;;;;;;;;;5061739;27;87020;-47
2022/07/14 01:50:25;;;;;;;3.97;2.40;;;;;;;;;;5061920;27;87035;-46
2022/07/14 01:52:53;;;;;;;3.87;2.93;;;;;;;;;;5061262;27;88238;-46
2022/07/14 01:55:22;;;;;;;6.60;3.27;;;;;;;;;;5061651;27;88835;-46
2022/07/14 01:57:51;;;;;;;4.80;3.33;;;;;;;;;;5062111;27;87062;-46
2022/07/14 02:00:20;;;;;;;6.47;3.53;;;;;;;;;;5062092;27;86242;-46
2022/07/14 02:02:48;;;;;;;5.30;3.67;;;;;;;;;;5061295;27;88247;-47
2022/07/14 02:05:17;;;;;;;6.77;4.20;;;;;;;;;;5060819;27;89006;-47
2022/07/14 02:07:46;;;;;;;6.37;4.03;;;;;;;;;;5058687;27;88185;-47
2022/07/14 02:13:02;;;;;;;5.97;4.07;;;;;;;;;;5061156;27;88079;-47
2022/07/14 02:15:30;;;;;;;6.80;3.80;;;;;;;;;;5061085;27;87841;-47
2022/07/14 02:17:58;;;;;;;7.60;3.83;;;;;;;;;;5061684;27;86995;-46
2022/07/14 02:20:27;;;;;;;4.97;3.43;;;;;;;;;;5061898;27;86861;-47
2022/07/14 02:22:55;;;;;;;6.77;3.57;;;;;;;;;;5061028;27;87027;-48
2022/07/14 02:25:23;;;;;;;5.40;4.53;;;;;;;;;;5061571;27;87778;-46
2022/07/14 02:27:52;;;;;;;5.83;3.87;;;;;;;;;;5060540;27;87022;-47
2022/07/14 02:30:22;;;;;;;9.40;4.70;;;;;;;;;;5059828;27;86981;-46
2022/07/14 02:32:50;;;;;;;6.00;3.80;;;;;;;;;;5060570;27;90136;-46
2022/07/14 02:35:18;;;;;;;6.40;4.07;;;;;;;;;;5061474;27;88863;-45
2022/07/14 02:37:46;;;;;;;5.43;3.57;;;;;;;;;;5061021;27;87036;-46
2022/07/14 02:40:15;;;;;;;5.93;4.13;;;;;;;;;;5060774;27;88768;-46
2022/07/14 02:42:43;;;;;;;4.23;3.23;;;;;;;;;;5063701;27;88208;-46
2022/07/14 02:45:11;;;;;;;4.87;3.87;;;;;;;;;;5063986;27;87802;-46
2022/07/14 02:47:41;;;;;;;6.67;3.93;;;;;;;;;;5064395;27;87038;-46
2022/07/14 02:50:10;;;;;;;5.77;3.70;;;;;;;;;;5064336;27;86274;-47
2022/07/14 02:52:38;;;;;;;4.87;3.17;;;;;;;;;;5064507;27;88091;-46
2022/07/14 02:55:07;;;;;;;4.13;3.13;;;;;;;;;;5064333;27;87580;-46
2022/07/14 02:57:35;;;;;;;5.57;3.67;;;;;;;;;;5064375;27;87701;-46
2022/07/14 03:00:04;;;;;;;5.70;3.33;;;;;;;;;;5063857;27;86972;-47
2022/07/14 03:02:32;;;;;;;6.07;3.60;;;;;;;;;;5046045;27;88024;-46
2022/07/14 03:05:04;;;;;;;4.57;3.30;;;;;;;;;;5064694;27;87830;-46
2022/07/14 03:07:32;;;;;;;5.70;4.00;;;;;;;;;;5064104;27;86928;-46
2022/07/14 03:10:01;;;;;;;5.13;3.73;;;;;;;;;;5064463;27;87038;-46
2022/07/14 03:12:29;;;;;;;8.17;4.40;;;;;;;;;;5063731;27;89056;-46
2022/07/14 03:14:57;;;;;;;6.47;4.03;;;;;;;;;;5064477;27;87921;-47
2022/07/14 03:17:26;;;;;;;6.80;4.50;;;;;;;;;;5064427;27;87034;-47
2022/07/14 03:19:54;;;;;;;6.23;4.10;;;;;;;;;;5064231;27;86983;-47
2022/07/14 03:22:24;;;;;;;8.47;4.47;;;;;;;;;;5063072;27;87958;-46
2022/07/14 03:24:52;;;;;;;6.77;4.57;;;;;;;;;;5062880;27;88954;-46
2022/07/14 03:27:20;;;;;;;8.43;4.90;;;;;;;;;;5061517;27;87204;-46
2022/07/14 03:29:49;;;;;;;6.10;3.73;;;;;;;;;;5061585;27;87019;-46
2022/07/14 03:32:17;;;;;;;6.10;4.10;;;;;;;;;;5061247;27;88286;-46
2022/07/14 03:34:45;;;;;;;5.63;3.90;;;;;;;;;;5063389;27;86968;-46
2022/07/14 03:37:13;;;;;;;4.57;3.67;;;;;;;;;;5063095;27;86956;-46
2022/07/14 03:39:43;;;;;;;5.43;4.40;;;;;;;;;;5064233;27;86295;-46
2022/07/14 03:42:11;;;;;;;5.00;3.83;;;;;;;;;;5062799;27;88267;-46
2022/07/14 03:44:40;;;;;;;4.70;3.83;;;;;;;;;;5062869;27;88205;-46
2022/07/14 03:47:09;;;;;;;5.93;3.97;;;;;;;;;;5063108;27;88060;-46
2022/07/14 03:49:38;;;;;;;7.03;3.63;;;;;;;;;;5062763;27;87135;-46
2022/07/14 03:52:07;;;;;;;7.20;4.03;;;;;;;;;;5062714;27;89036;-46
2022/07/14 03:54:36;;;;;;;6.83;3.20;;;;;;;;;;5063178;27;88932;-46
2022/07/14 03:57:05;;;;;;;5.57;3.20;;;;;;;;;;5062566;27;86896;-47
2022/07/14 03:59:39;;;;;;;5.67;4.10;;;;;;;;;;5078832;27;87055;-47
2022/07/14 04:02:08;;;;;;;5.03;3.53;;;;;;;;;;5070565;27;89159;-46
2022/07/14 04:04:37;;;;;;;5.67;3.60;;;;;;;;;;5083932;27;87828;-46
2022/07/14 04:07:05;;;;;;;3.97;2.67;;;;;;;;;;5069289;27;86924;-47
2022/07/14 04:09:33;;;;;;;5.17;3.13;;;;;;;;;;5062438;27;86990;-46
2022/07/14 04:12:01;;;;;;;7.03;3.73;;;;;;;;;;5062844;27;88028;-46
2022/07/14 04:14:31;;;;;;;3.67;3.27;;;;;;;;;;5063464;27;88845;-46
2022/07/14 04:16:59;;;;;;;4.77;2.20;;;;;;;;;;5063005;27;86862;-46
2022/07/14 04:19:28;;;;;;;2.87;2.10;;;;;;;;;;5063277;27;86939;-46
2022/07/14 04:21:56;;;;;;;3.30;2.43;;;;;;;;;;5062920;27;89155;-47
2022/07/14 04:24:45;;;;;;;3.20;2.57;;;;;;;;;;5063011;27;86991;-46
2022/07/14 04:27:13;;;;;;;5.17;2.87;;;;;;;;;;5063265;27;87019;-47
2022/07/14 04:29:43;;;;;;;5.27;2.40;;;;;;;;;;5063357;27;86243;-47
2022/07/14 04:32:11;;;;;;;2.30;1.83;;;;;;;;;;5062542;27;88280;-47
2022/07/14 04:34:40;;;;;;;2.07;1.87;;;;;;;;;;5062877;27;87622;-47
2022/07/14 04:37:08;;;;;;;5.73;1.90;;;;;;;;;;5062551;27;87853;-47
2022/07/14 04:39:37;;;;;;;4.10;1.60;;;;;;;;;;5063121;27;86934;-47
2022/07/14 04:42:05;;;;;;;1.87;1.70;;;;;;;;;;5061288;27;88748;-47
2022/07/14 04:44:34;;;;;;;3.13;1.97;;;;;;;;;;5062008;27;87858;-47
2022/07/14 04:47:04;;;;;;;1.83;1.17;;;;;;;;;;5062916;27;87081;-47
2022/07/14 04:52:18;;;;;;;2.37;1.60;;;;;;;;;;5061929;27;88138;-47
2022/07/14 04:54:46;;;;;;;1.57;1.30;;;;;;;;;;5062373;27;87805;-47
2022/07/14 04:57:15;;;;;;;3.10;1.10;;;;;;;;;;5062235;27;86957;-47
2022/07/14 04:59:43;;;;;;;2.40;1.10;;;;;;;;;;5062369;27;87010;-47
2022/07/14 05:02:13;;;;;;;1.43;0.90;;;;;;;;;;5061343;27;90170;-47
2022/07/14 05:04:41;;;;;;;1.93;0.83;;;;;;;;;;5061224;27;88625;-47
2022/07/14 05:07:09;;;;;;;2.20;0.77;;;;;;;;;;5062253;27;87034;-46
2022/07/14 05:09:38;;;;;;;1.97;0.70;;;;;;;;;;5061975;27;86910;-47
2022/07/14 05:12:09;;;;;;;1.20;0.50;;;;;;;;;;5061587;27;88053;-47
2022/07/14 05:14:38;;;;;;;0.83;0.63;;;;;;;;;;5061316;27;87929;-47
2022/07/14 05:17:06;;;;;;;1.00;0.70;;;;;;;;;;5061636;27;87007;-47
2022/07/14 05:19:46;;;;;;;2.03;0.90;;;;;;;;;;5062628;27;86299;-47
2022/07/14 05:22:15;;;;;;;0.77;0.50;;;;;;;;;;5061552;27;89039;-47
2022/07/14 05:24:43;;;;;;;0.60;0.60;;;;;;;;;;5061611;27;87045;-47
2022/07/14 05:27:11;;;;;;;1.77;0.50;;;;;;;;;;5060936;27;87939;-47
2022/07/14 05:29:40;;;;;;;0.77;0.60;;;;;;;;;;5061672;27;87033;-47
2022/07/14 05:32:08;;;;;;;0.93;0.60;;;;;;;;;;5061492;27;86997;-47
2022/07/14 05:34:41;;;;;;;2.77;0.70;;;;;;;;;;5061872;27;87632;-46
2022/07/14 05:37:11;;;;;;;1.90;0.40;;;;;;;;;;5060890;27;87214;-46
2022/07/14 05:39:40;;;;;;;2.40;0.53;;;;;;;;;;5061911;27;86935;-47
2022/07/14 05:42:08;;;;;;;1.17;0.60;;;;;;;;;;5058205;27;87744;-46
2022/07/14 05:44:37;;;;;;;1.13;0.60;;;;;;;;;;5061545;27;87950;-49
2022/07/14 05:47:05;;;;;;;5.47;0.83;;;;;;;;;;5061692;27;87024;-47
2022/07/14 05:49:34;;;;;;;1.27;0.57;;;;;;;;;;5061845;27;87084;-47
2022/07/14 05:52:05;;;;;;;0.53;0.53;;;;;;;;;;5060388;27;90083;-47
2022/07/14 05:54:35;;;;;;;1.20;0.30;;;;;;;;;;5041446;28;88756;-47
2022/07/14 05:57:03;;;;;;;0.93;0.30;;;;;;;;;;5060702;27;87012;-47
2022/07/14 05:59:31;;;;;;;0.73;0.40;;;;;;;;;;5061509;27;86967;-46
2022/07/14 06:02:12;;;;;;;1.30;0.57;;;;;;;;;;5060506;27;88123;-46
2022/07/14 06:04:41;;;;;;;1.30;0.57;;;;;;;;;;5061564;27;87913;-46
2022/07/14 06:07:09;;;;;;;0.30;0.30;;;;;;;;;;5060675;27;87095;-47
2022/07/14 06:09:39;;;;;;;0.40;0.40;;;;;;;;;;5061259;27;86455;-46
2022/07/14 06:12:08;;;;;;;1.50;0.47;;;;;;;;;;5060245;27;88262;-46
2022/07/14 06:14:36;;;;;;;0.77;0.40;;;;;;;;;;5061330;27;88803;-46
2022/07/14 06:17:05;;;;;;;0.60;0.60;;;;;;;;;;5063638;27;88019;-47
2022/07/14 06:19:33;;;;;;;1.57;0.30;;;;;;;;;;5064394;27;87040;-46
2022/07/14 06:22:04;;;;;;;1.47;0.50;;;;;;;;;;5063879;27;87099;-46
2022/07/14 06:24:32;;;;;;;1.17;0.20;;;;;;;;;;5064248;27;87806;-46
2022/07/14 06:27:02;;;;;;;1.43;0.40;;;;;;;;;;5064671;27;87158;-46
2022/07/14 06:29:30;;;;;;;0.60;0.40;;;;;;;;;;5064629;27;87066;-47
2022/07/14 06:31:59;;;;;;;1.77;0.40;;;;;;;;;;5051523;27;89496;-46
2022/07/14 06:34:27;;;;;;;1.80;0.43;;;;;;;;;;5064657;27;88921;-46
2022/07/14 06:36:56;;;;;;;2.30;0.43;;;;;;;;;;5081081;27;87141;-47
2022/07/14 06:39:24;;;;;;;0.63;0.50;;;;;;;;;;5074472;27;87045;-46
2022/07/14 06:41:52;;;;;;;1.07;0.57;;;;;;;;;;5062725;27;89206;-46
2022/07/14 06:44:22;;;;;;;1.80;0.50;;;;;;;;;;5064136;27;88996;-49
2022/07/14 06:46:54;;;;;;;0.60;0.53;;;;;;;;;;5064748;27;87057;-47
2022/07/14 06:49:23;;;;;;;0.73;0.40;;;;;;;;;;5064739;27;87141;-47
2022/07/14 06:51:51;;;;;;;3.77;0.40;;;;;;;;;;5069451;27;88023;-47
2022/07/14 06:54:24;;;;;;;3.90;0.30;;;;;;;;;;5085120;27;88616;-47
2022/07/14 06:56:52;;;;;;;1.73;0.60;;;;;;;;;;5082951;27;87025;-47
2022/07/14 06:59:20;;;;;;;0.10;0.10;;;;;;;;;;5084520;27;86385;-46
2022/07/14 07:01:50;;;;;;;0.40;0.40;;;;;;;;;;5084624;27;88255;-47
2022/07/14 07:04:18;;;;;;;2.63;0.30;;;;;;;;;;5085170;27;87819;-47
2022/07/14 07:06:54;;;;;;;0.67;0.40;;;;;;;;;;5084639;27;87936;-46
2022/07/14 07:09:22;;;;;;;0.60;0.27;;;;;;;;;;5085020;27;87123;-46
2022/07/14 07:11:51;;;;;;;0.47;0.30;;;;;;;;;;5084838;27;90438;-46
2022/07/14 07:14:19;;;;;;;2.23;0.47;;;;;;;;;;5083892;27;87814;-46
2022/07/14 07:16:47;;;;;;;0.73;0.43;;;;;;;;;;5084770;27;86723;-47
2022/07/14 07:19:17;;;;;;;0.73;0.50;;;;;;;;;;5084830;27;87072;-47
2022/07/14 07:21:45;;;;;;;3.43;0.60;;;;;;;;;;5084340;27;89158;-47
2022/07/14 07:24:13;;;;;;;1.60;0.77;;;;;;;;;;5063229;27;87839;-46
2022/07/14 07:26:42;;;;;;;1.50;0.50;;;;;;;;;;5063259;27;88399;-46
2022/07/14 07:29:11;;;;;;;0.53;0.30;;;;;;;;;;5063431;27;87093;-46
2022/07/14 07:31:39;;;;;;;0.50;0.40;;;;;;;;;;5062000;27;89021;-47
2022/07/14 07:34:07;;;;;;;0.83;0.43;;;;;;;;;;5062788;27;88935;-47
2022/07/14 07:36:37;;;;;;;0.30;0.20;;;;;;;;;;5063905;27;87166;-47
2022/07/14 07:39:20;;;;;;;3.23;0.53;;;;;;;;;;5064219;27;87146;-46
2022/07/14 07:41:48;;;;;;;1.07;0.53;;;;;;;;;;5063724;27;89444;-47
2022/07/14 07:44:16;;;;;;;0.50;0.50;;;;;;;;;;5063796;27;87874;-46
2022/07/14 07:46:45;;;;;;;1.17;0.50;;;;;;;;;;5063951;27;86941;-46
2022/07/14 07:49:13;;;;;;;0.30;0.27;;;;;;;;;;5064687;27;86129;-47
2022/07/14 07:51:43;;;;;;;0.77;0.40;;;;;;;;;;5063506;27;88078;-47
2022/07/14 07:54:11;;;;;;;0.60;0.60;;;;;;;;;;5063276;27;88956;-46
2022/07/14 07:56:39;;;;;;;1.90;0.83;;;;;;;;;;5062898;27;87929;-47
2022/07/14 07:59:07;;;;;;;1.40;0.67;;;;;;;;;;5063862;27;87034;-47
2022/07/14 08:01:36;;;;;;;0.47;0.40;;;;;;;;;;5063046;27;88206;-46
2022/07/14 08:04:04;;;;;;;0.60;0.40;;;;;;;;;;5061951;27;87700;-46
2022/07/14 08:06:35;;;;;;;1.10;0.40;;;;;;;;;;5063588;27;87078;-47
2022/07/14 08:09:11;;;;;;;2.10;0.40;;;;;;;;;;5063641;27;87001;-47
2022/07/14 08:11:40;;;;;;;4.40;0.63;;;;;;;;;;5062894;27;88307;-46
2022/07/14 08:14:47;;;;;;;1.13;0.30;;;;;;;;;;5063592;27;87931;-47
2022/07/14 08:16:57;;;;;;;0.67;0.33;;;;;;;;;;5063627;27;86939;-47
2022/07/14 08:19:25;;;;;;;0.70;0.30;;;;;;;;;;5063839;27;87018;-46
2022/07/14 08:21:54;;;;;;;1.60;0.50;;;;;;;;;;5062893;27;89049;-47
2022/07/14 08:24:24;;;;;;;0.73;0.57;;;;;;;;;;5062971;27;88733;-47
2022/07/14 08:26:52;;;;;;;0.63;0.50;;;;;;;;;;5063566;27;86862;-47
2022/07/14 08:29:20;;;;;;;3.07;0.70;;;;;;;;;;5063354;27;87050;-47
2022/07/14 08:31:48;;;;;;;1.13;0.80;;;;;;;;;;5062466;27;88245;-47
2022/07/14 08:34:17;;;;;;;1.60;0.60;;;;;;;;;;5062620;27;87790;-47
2022/07/14 08:36:45;;;;;;;0.77;0.63;;;;;;;;;;5062800;27;87066;-47
2022/07/14 08:39:14;;;;;;;2.73;0.83;;;;;;;;;;5061536;27;86276;-47
2022/07/14 08:41:43;;;;;;;1.13;0.77;;;;;;;;;;5062375;27;88237;-47
2022/07/14 08:44:12;;;;;;;2.70;0.90;;;;;;;;;;5062307;27;88149;-47
2022/07/14 08:46:40;;;;;;;2.33;0.70;;;;;;;;;;5062623;27;87891;-47
2022/07/14 08:49:12;;;;;;;1.27;0.50;;;;;;;;;;5062527;27;86865;-47
2022/07/14 08:51:44;;;;;;;1.27;0.60;;;;;;;;;;5062855;27;89458;-46
2022/07/14 08:54:13;;;;;;;0.60;0.50;;;;;;;;;;5062816;27;87808;-48
2022/07/14 08:56:41;;;;;;;1.40;0.50;;;;;;;;;;5062431;27;87097;-47
2022/07/14 08:59:11;;;;;;;0.73;0.67;;;;;;;;;;5062849;27;86969;-47
2022/07/14 09:01:39;;;;;;;1.77;0.83;;;;;;;;;;5061998;27;88247;-46
2022/07/14 09:04:08;;;;;;;1.37;0.73;;;;;;;;;;5062755;27;87784;-47
2022/07/14 09:06:46;;;;;;;2.10;1.10;;;;;;;;;;5062588;27;86955;-48
2022/07/14 09:09:17;;;;;;;0.30;0.30;;;;;;;;;;5062874;27;86980;-46
2022/07/14 09:11:52;;;;;;;1.00;0.63;;;;;;;;;;5062015;27;90088;-47
2022/07/14 09:14:27;;;;;;;1.50;0.50;;;;;;;;;;5062132;27;89800;-47
2022/07/14 09:17:14;;;;;;;2.47;0.53;;;;;;;;;;5062580;27;86869;-47
2022/07/14 09:19:58;;;;;;;1.13;0.60;;;;;;;;;;5062352;27;87030;-46
2022/07/14 09:22:28;;;;;;;1.20;0.70;;;;;;;;;;5061911;27;88118;-47
2022/07/14 09:24:56;;;;;;;1.33;0.50;;;;;;;;;;5062063;27;87807;-47
2022/07/14 09:27:25;;;;;;;4.27;0.73;;;;;;;;;;5062123;27;86996;-47
2022/07/14 09:29:55;;;;;;;2.87;0.70;;;;;;;;;;5062285;27;86264;-47
2022/07/14 09:32:38;;;;;;;3.23;1.00;;;;;;;;;;5062128;27;88205;-47
2022/07/14 09:35:07;;;;;;;0.53;0.47;;;;;;;;;;5061883;27;87945;-47
2022/07/14 09:37:37;;;;;;;2.67;0.60;;;;;;;;;;5061175;27;88010;-46
2022/07/14 09:40:06;;;;;;;1.40;0.60;;;;;;;;;;5061990;27;87058;-47
2022/07/14 09:42:48;;;;;;;0.97;0.60;;;;;;;;;;5061910;27;88292;-47
2022/07/14 09:45:18;;;;;;;1.70;0.47;;;;;;;;;;5061675;27;87054;-46
2022/07/14 09:47:52;;;;;;;1.93;0.43;;;;;;;;;;5062270;27;86826;-47
2022/07/14 09:50:33;;;;;;;1.43;0.30;;;;;;;;;;5062171;27;86959;-47
2022/07/14 09:53:06;;;;;;;1.03;0.57;;;;;;;;;;5061598;27;89200;-47
2022/07/14 09:55:35;;;;;;;2.33;0.50;;;;;;;;;;5061736;27;88102;-47
2022/07/14 09:58:04;;;;;;;0.50;0.50;;;;;;;;;;5061761;27;86975;-47
2022/07/14 10:00:33;;;;;;;1.13;0.40;;;;;;;;;;5061387;27;86905;-47
2022/07/14 10:03:02;;;;;;;1.90;0.30;;;;;;;;;;5061179;27;88959;-47
2022/07/14 10:05:30;;;;;;;0.87;0.50;;;;;;;;;;5061650;27;89876;-47
2022/07/14 10:07:59;;;;;;;0.50;0.33;;;;;;;;;;5061579;27;87166;-47
2022/07/14 10:10:27;;;;;;;0.30;0.30;;;;;;;;;;5061827;27;86905;-47
2022/07/14 10:12:55;;;;;;;0.50;0.50;;;;;;;;;;5061603;27;89152;-47
2022/07/14 10:15:24;;;;;;;0.87;0.43;;;;;;;;;;5061526;27;87771;-47
2022/07/14 10:17:54;;;;;;;2.20;0.40;;;;;;;;;;5061232;27;87032;-47
2022/07/14 10:20:22;;;;;;;1.03;0.70;;;;;;;;;;5061569;27;86102;-47
2022/07/14 10:22:50;;;;;;;0.50;0.50;;;;;;;;;;5061073;27;89161;-47
2022/07/14 10:25:19;;;;;;;1.20;0.50;;;;;;;;;;5061089;27;87751;-47
2022/07/14 10:27:47;;;;;;;0.20;0.20;;;;;;;;;;5061284;27;87993;-47
2022/07/14 10:30:16;;;;;;;1.27;0.60;;;;;;;;;;5061391;27;87010;-47
2022/07/14 10:32:47;;;;;;;0.30;0.30;;;;;;;;;;5060884;27;89076;-46
2022/07/14 10:35:20;;;;;;;0.87;0.30;;;;;;;;;;5060446;27;87894;-47
2022/07/14 10:37:52;;;;;;;1.23;0.50;;;;;;;;;;5060801;27;87037;-46
2022/07/14 10:40:22;;;;;;;0.40;0.37;;;;;;;;;;5061075;27;86997;-46
2022/07/14 10:42:52;;;;;;;0.30;0.30;;;;;;;;;;5061024;27;87919;-46
2022/07/14 10:45:20;;;;;;;0.50;0.40;;;;;;;;;;5061233;27;87955;-46
2022/07/14 10:47:49;;;;;;;0.30;0.30;;;;;;;;;;5060950;27;86825;-48
2022/07/14 10:50:21;;;;;;;0.83;0.50;;;;;;;;;;5060726;27;87062;-46
2022/07/14 10:52:51;;;;;;;2.53;0.40;;;;;;;;;;5060191;27;89025;-46
2022/07/14 10:55:20;;;;;;;2.97;0.50;;;;;;;;;;5060513;27;87579;-46
2022/07/14 10:58:12;;;;;;;0.97;0.53;;;;;;;;;;5061104;27;87062;-46
2022/07/14 11:00:56;;;;;;;1.00;0.57;;;;;;;;;;5061163;27;86959;-48
2022/07/14 11:03:25;;;;;;;0.80;0.77;;;;;;;;;;5062833;27;88036;-48
2022/07/14 11:06:14;;;;;;;0.60;0.60;;;;;;;;;;5063965;27;87735;-48
2022/07/14 11:09:03;;;;;;;1.50;0.67;;;;;;;;;;5064289;27;87007;-48
2022/07/14 11:11:32;;;;;;;0.40;0.40;;;;;;;;;;5064677;27;86485;-47
2022/07/14 11:14:10;;;;;;;1.37;0.67;;;;;;;;;;5063891;27;89316;-45
2022/07/14 11:17:08;;;;;;;1.40;0.60;;;;;;;;;;5063934;27;87895;-48
2022/07/14 11:19:37;;;;;;;0.67;0.40;;;;;;;;;;5021466;28;87982;-47
2022/07/14 11:22:12;;;;;;;0.33;0.33;;;;;;;;;;5055479;27;87129;-47
2022/07/14 11:24:52;;;;;;;1.07;0.63;;;;;;;;;;5064153;27;88381;-47
2022/07/14 11:27:28;;;;;;;1.17;0.60;;;;;;;;;;5063626;27;87960;-47
2022/07/14 11:29:57;;;;;;;1.90;0.50;;;;;;;;;;5063495;27;87212;-48
2022/07/14 11:32:29;;;;;;;1.17;0.80;;;;;;;;;;5064372;27;86955;-47
2022/07/14 11:38:00;;;;;;;1.23;0.57;;;;;;;;;;5064305;27;87932;-46
2022/07/14 11:40:45;;;;;;;1.97;0.70;;;;;;;;;;5064078;27;87007;-47
2022/07/14 11:43:36;;;;;;;0.57;0.57;;;;;;;;;;5064129;27;86967;-46
2022/07/14 11:46:07;;;;;;;1.47;0.70;;;;;;;;;;5063381;27;89194;-46
2022/07/14 11:48:39;;;;;;;1.33;0.60;;;;;;;;;;5063752;27;88742;-46
2022/07/14 11:51:08;;;;;;;0.70;0.57;;;;;;;;;;5063963;27;87078;-46
2022/07/14 11:53:38;;;;;;;0.40;0.40;;;;;;;;;;5064204;27;86899;-46
2022/07/14 11:56:07;;;;;;;1.27;0.70;;;;;;;;;;5063361;27;88176;-46
2022/07/14 11:58:37;;;;;;;0.50;0.50;;;;;;;;;;5063599;27;87702;-46
2022/07/14 12:01:08;;;;;;;0.50;0.50;;;;;;;;;;5063571;27;87428;-46
2022/07/14 12:03:37;;;;;;;2.20;0.50;;;;;;;;;;5063082;27;86255;-46
2022/07/14 12:06:05;;;;;;;2.00;0.90;;;;;;;;;;5063269;27;88266;-45
2022/07/14 12:08:36;;;;;;;1.10;0.60;;;;;;;;;;5063420;27;87589;-46
2022/07/14 12:11:05;;;;;;;0.40;0.40;;;;;;;;;;5062677;27;88615;-46
2022/07/14 12:13:34;;;;;;;0.60;0.50;;;;;;;;;;5063619;27;87128;-46
2022/07/14 12:16:03;;;;;;;0.63;0.53;;;;;;;;;;5063070;27;89196;-46
2022/07/14 12:18:36;;;;;;;0.93;0.53;;;;;;;;;;5063409;27;88776;-46
2022/07/14 12:21:04;;;;;;;1.73;0.53;;;;;;;;;;5063841;27;87036;-46
2022/07/14 12:23:33;;;;;;;1.73;0.60;;;;;;;;;;5063047;27;87354;-46
2022/07/14 12:26:02;;;;;;;0.60;0.50;;;;;;;;;;5062765;27;88244;-46
2022/07/14 12:28:33;;;;;;;0.67;0.47;;;;;;;;;;5063101;27;87749;-46
2022/07/14 12:31:04;;;;;;;0.50;0.50;;;;;;;;;;5062979;27;87106;-46
2022/07/14 12:33:37;;;;;;;2.20;0.50;;;;;;;;;;5063178;27;86846;-46
2022/07/14 12:36:05;;;;;;;1.03;0.40;;;;;;;;;;5062001;27;88955;-46
2022/07/14 12:38:36;;;;;;;0.53;0.40;;;;;;;;;;5062862;27;88729;-46
2022/07/14 12:41:05;;;;;;;0.30;0.30;;;;;;;;;;5063107;27;87042;-46
2022/07/14 12:43:33;;;;;;;0.57;0.50;;;;;;;;;;5062874;27;87058;-46
2022/07/14 12:46:03;;;;;;;4.17;0.70;;;;;;;;;;5062546;27;87805;-46
2022/07/14 12:48:33;;;;;;;1.37;0.70;;;;;;;;;;5062445;27;87629;-46
2022/07/14 12:51:17;;;;;;;0.60;0.40;;;;;;;;;;5062747;27;86916;-46
2022/07/14 12:54:01;;;;;;;1.03;0.53;;;;;;;;;;5063091;27;86279;-45
2022/07/14 12:56:32;;;;;;;0.23;0.23;;;;;;;;;;5062065;27;88072;-46
2022/07/14 12:59:04;;;;;;;0.20;0.20;;;;;;;;;;5062554;27;88819;-46
2022/07/14 13:01:33;;;;;;;1.83;0.40;;;;;;;;;;5062134;27;87898;-47
2022/07/14 13:04:06;;;;;;;0.50;0.50;;;;;;;;;;5062722;27;87073;-46
2022/07/14 13:06:45;;;;;;;0.40;0.20;;;;;;;;;;5062737;27;88123;-47
2022/07/14 13:09:13;;;;;;;0.40;0.40;;;;;;;;;;5061624;27;87923;-46
2022/07/14 13:11:42;;;;;;;0.47;0.40;;;;;;;;;;5062010;27;86874;-46
2022/07/14 13:14:10;;;;;;;1.60;0.50;;;;;;;;;;5062383;27;87027;-46
2022/07/14 13:16:43;;;;;;;0.40;0.40;;;;;;;;;;5062188;27;89183;-46
2022/07/14 13:19:23;;;;;;;0.50;0.40;;;;;;;;;;5062719;27;87791;-46
2022/07/14 13:22:00;;;;;;;0.50;0.43;;;;;;;;;;5062697;27;87169;-46
2022/07/14 13:24:29;;;;;;;0.63;0.30;;;;;;;;;;5062307;27;87242;-47
2022/07/14 13:26:59;;;;;;;0.83;0.40;;;;;;;;;;5060788;27;89223;-46
2022/07/14 13:29:27;;;;;;;0.40;0.40;;;;;;;;;;5061382;27;89900;-46
2022/07/14 13:31:55;;;;;;;0.37;0.30;;;;;;;;;;5061838;27;87003;-47
2022/07/14 13:34:29;;;;;;;1.30;0.50;;;;;;;;;;5061614;27;87170;-46
2022/07/14 13:36:57;;;;;;;0.50;0.40;;;;;;;;;;5061344;27;88204;-47
2022/07/14 13:39:26;;;;;;;1.20;0.47;;;;;;;;;;5062427;27;87051;-47
2022/07/14 13:41:54;;;;;;;0.90;0.40;;;;;;;;;;5062330;27;86733;-47
2022/07/14 13:44:23;;;;;;;0.80;0.30;;;;;;;;;;5062654;27;86323;-47
2022/07/14 13:46:54;;;;;;;0.30;0.30;;;;;;;;;;5061974;27;88020;-46
2022/07/14 13:49:23;;;;;;;0.37;0.20;;;;;;;;;;5061634;27;87729;-47
2022/07/14 13:52:10;;;;;;;1.43;0.20;;;;;;;;;;5061436;27;88034;-47
2022/07/14 13:54:39;;;;;;;0.20;0.20;;;;;;;;;;5062173;27;86916;-46
2022/07/14 13:57:08;;;;;;;0.50;0.50;;;;;;;;;;5062114;27;87088;-47
2022/07/14 13:59:39;;;;;;;0.20;0.20;;;;;;;;;;5061720;27;88925;-46
2022/07/14 14:02:09;;;;;;;0.40;0.30;;;;;;;;;;5061349;27;86963;-47
2022/07/14 14:04:41;;;;;;;0.30;0.30;;;;;;;;;;5061337;27;87050;-46
2022/07/14 14:07:17;;;;;;;0.50;0.47;;;;;;;;;;5060852;27;88126;-47
2022/07/14 14:09:48;;;;;;;2.43;0.73;;;;;;;;;;5061706;27;87771;-47
2022/07/14 14:12:16;;;;;;;2.63;0.60;;;;;;;;;;5060758;27;86999;-47
2022/07/14 14:14:44;;;;;;;1.23;0.63;;;;;;;;;;5057589;27;87086;-47
2022/07/14 14:17:13;;;;;;;2.70;1.20;;;;;;;;;;5060283;27;91592;-47
2022/07/14 14:19:43;;;;;;;4.67;1.00;;;;;;;;;;5064646;27;88743;-47
2022/07/14 14:22:17;;;;;;;3.40;0.67;;;;;;;;;;5063409;27;87133;-47
2022/07/14 14:24:48;;;;;;;2.40;0.50;;;;;;;;;;5058963;27;87036;-47
2022/07/14 14:27:20;;;;;;;0.70;0.70;;;;;;;;;;5056604;27;88377;-47
2022/07/14 14:29:48;;;;;;;1.03;0.50;;;;;;;;;;5061206;27;87762;-47
2022/07/14 14:32:16;;;;;;;0.67;0.60;;;;;;;;;;5061706;27;87026;-47
2022/07/14 14:34:45;;;;;;;0.70;0.63;;;;;;;;;;5061625;27;86238;-48
2022/07/14 14:37:13;;;;;;;1.70;0.50;;;;;;;;;;5062402;27;88141;-47
2022/07/14 14:39:42;;;;;;;2.93;0.60;;;;;;;;;;5064633;27;87806;-46
2022/07/14 14:42:13;;;;;;;0.50;0.50;;;;;;;;;;5064452;27;87794;-45
2022/07/14 14:44:48;;;;;;;1.07;0.70;;;;;;;;;;5065153;27;87007;-45
2022/07/14 14:47:17;;;;;;;0.70;0.70;;;;;;;;;;5066940;27;89454;-46
2022/07/14 14:49:54;;;;;;;1.33;0.70;;;;;;;;;;5052643;27;87225;-44
2022/07/14 14:52:25;;;;;;;0.97;0.60;;;;;;;;;;5064201;27;86869;-46
2022/07/14 14:54:57;;;;;;;0.70;0.60;;;;;;;;;;5064682;27;87023;-47
2022/07/14 14:57:27;;;;;;;1.13;0.83;;;;;;;;;;5064196;27;88267;-47
2022/07/14 14:59:57;;;;;;;1.17;0.40;;;;;;;;;;5064393;27;88952;-48
2022/07/14 15:02:28;;;;;;;1.67;0.70;;;;;;;;;;5064534;27;86740;-46
2022/07/14 15:04:56;;;;;;;1.37;0.57;;;;;;;;;;5063634;27;87064;-46
2022/07/14 15:07:24;;;;;;;0.87;0.60;;;;;;;;;;5063640;27;89173;-46
2022/07/14 15:09:53;;;;;;;0.70;0.60;;;;;;;;;;5063706;27;87521;-47